createdAt,value
2023-04-04T00:01:08.838Z,93512.56
2023-04-04T00:03:54.056Z,93512.81
2023-04-04T00:06:37.553Z,93511.69
2023-04-04T00:09:20.908Z,93499.28
2023-04-04T00:12:04.334Z,93518.84
2023-04-04T00:14:47.633Z,93518.44
2023-04-04T00:17:30.984Z,93521.53
2023-04-04T00:20:16.283Z,93526.63
2023-04-04T00:22:59.482Z,93529.28
2023-04-04T00:25:42.676Z,93517.38
2023-04-04T00:28:26.013Z,93519.13
2023-04-04T00:31:09.652Z,93519.41
2023-04-04T00:33:52.965Z,93518.94
2023-04-04T00:36:37.756Z,93513.13
2023-04-04T00:39:21.170Z,93506.94
2023-04-04T00:42:04.791Z,93499.78
2023-04-04T00:44:48.044Z,93495.22
2023-04-04T00:47:32.562Z,93491.09
2023-04-04T00:50:15.886Z,93485.28
2023-04-04T00:53:00.693Z,93491.06
2023-04-04T00:55:44.694Z,93478.06
2023-04-04T00:58:28.274Z,93476.09
2023-04-04T01:01:12.209Z,93474.63
2023-04-04T01:03:55.897Z,93477.22
2023-04-04T01:06:39.193Z,93474.13
2023-04-04T01:09:24.514Z,93489.66
2023-04-04T01:12:08.277Z,93487.72
2023-04-04T01:14:51.584Z,93492.19
2023-04-04T01:17:35.591Z,93484.88
2023-04-04T01:20:23.717Z,93495.34
2023-04-04T01:23:08.106Z,93494.84
2023-04-04T01:26:03.201Z,93500.19
2023-04-04T01:28:46.450Z,93508.19
2023-04-04T01:31:34.856Z,93504.88
2023-04-04T01:34:25.205Z,93509.34
2023-04-04T01:37:12.895Z,93499.78
2023-04-04T01:40:00.728Z,93501.22
2023-04-04T01:42:46.573Z,93508.78
2023-04-04T01:45:30.112Z,93500.25
2023-04-04T01:48:13.598Z,93493.88
2023-04-04T01:50:57.167Z,93490.69
2023-04-04T01:53:40.422Z,93487.31
2023-04-04T01:56:23.814Z,93480.22
2023-04-04T01:59:09.287Z,93470.63
2023-04-04T02:01:52.797Z,93481.03
2023-04-04T02:04:36.328Z,93471.66
2023-04-04T02:07:19.700Z,93469.53
2023-04-04T02:10:03.105Z,93479.78
2023-04-04T02:12:46.912Z,93482.38
2023-04-04T02:15:31.692Z,93485.38
2023-04-04T02:18:15.251Z,93476.75
2023-04-04T02:20:58.763Z,93477.50
2023-04-04T02:23:42.148Z,93462.66
2023-04-04T02:26:25.873Z,93465.25
2023-04-04T02:29:09.196Z,93461.56
2023-04-04T02:31:53.872Z,93464.34
2023-04-04T02:34:37.863Z,93459.88
2023-04-04T02:37:21.144Z,93464.97
2023-04-04T02:40:05.704Z,93464.31
2023-04-04T02:42:48.974Z,93476.06
2023-04-04T02:45:32.239Z,93472.28
2023-04-04T02:48:17.092Z,93468.84
2023-04-04T02:51:00.462Z,93473.56
2023-04-04T02:53:43.692Z,93466.63
2023-04-04T02:56:27.035Z,93467.50
2023-04-04T02:59:10.264Z,93468.38
2023-04-04T03:01:53.568Z,93463.03
2023-04-04T03:04:38.271Z,93460.81
2023-04-04T03:07:22.198Z,93460.88
2023-04-04T03:10:06.064Z,93462.78
2023-04-04T03:12:49.278Z,93458.69
2023-04-04T03:15:32.615Z,93462.66
2023-04-04T03:18:16.013Z,93461.81
2023-04-04T03:21:00.742Z,93462.19
2023-04-04T03:23:44.116Z,93468.69
2023-04-04T03:26:28.547Z,93459.72
2023-04-04T03:29:11.825Z,93448.66
2023-04-04T03:31:55.131Z,93452.63
2023-04-04T03:34:38.995Z,93457.44
2023-04-04T03:37:23.838Z,93454.72
2023-04-04T03:40:09.601Z,93463.06
2023-04-04T03:42:52.944Z,93466.72
2023-04-04T03:45:37.064Z,93458.81
2023-04-04T03:48:20.410Z,93466.03
2023-04-04T03:51:05.095Z,93470.31
2023-04-04T03:53:59.437Z,93465.81
2023-04-04T03:56:43.283Z,93468.94
2023-04-04T03:59:26.774Z,93468.63
2023-04-04T04:02:11.157Z,93462.91
2023-04-04T04:04:54.502Z,93461.41
2023-04-04T04:07:37.941Z,93451.91
2023-04-04T04:10:22.748Z,93473.41
2023-04-04T04:13:06.097Z,93470.84
2023-04-04T04:15:49.642Z,93467.47
2023-04-04T04:18:33.812Z,93461.19
2023-04-04T04:21:17.225Z,93470.03
2023-04-04T04:24:00.647Z,93469.94
2023-04-04T04:26:45.971Z,93477.25
2023-04-04T04:29:30.255Z,93482.56
2023-04-04T04:32:17.792Z,93481.91
2023-04-04T04:35:01.141Z,93488.94
2023-04-04T04:37:44.426Z,93487.50
2023-04-04T04:40:27.801Z,93498.94
2023-04-04T04:43:12.576Z,93503.44
2023-04-04T04:45:55.893Z,93502.31
2023-04-04T04:48:39.376Z,93499.03
2023-04-04T04:51:22.763Z,93495.72
2023-04-04T04:54:06.317Z,93510.31
2023-04-04T04:56:49.785Z,93503.91
2023-04-04T04:59:34.749Z,93512.81
2023-04-04T05:02:18.163Z,93518.03
2023-04-04T05:05:01.936Z,93518.03
2023-04-04T05:07:47.440Z,93516.50
2023-04-04T05:10:30.900Z,93522.31
2023-04-04T05:13:14.709Z,93515.97
2023-04-04T05:15:59.590Z,93522.50
2023-04-04T05:18:43.040Z,93531.47
2023-04-04T05:21:26.337Z,93542.00
2023-04-04T05:24:10.295Z,93544.22
2023-04-04T05:26:53.543Z,93528.03
2023-04-04T05:29:37.263Z,93535.28
2023-04-04T05:32:22.422Z,93541.59
2023-04-04T05:35:06.742Z,93546.50
2023-04-04T05:37:50.155Z,93527.22
2023-04-04T05:40:33.527Z,93540.34
2023-04-04T05:43:17.144Z,93540.22
2023-04-04T05:46:00.452Z,93543.06
2023-04-04T05:48:45.328Z,93535.00
2023-04-04T05:51:28.637Z,93541.00
2023-04-04T05:54:11.894Z,93543.38
2023-04-04T05:56:56.092Z,93542.84
2023-04-04T05:59:39.395Z,93548.38
2023-04-04T06:02:23.046Z,93542.91
2023-04-04T06:05:09.821Z,93542.84
2023-04-04T06:07:53.078Z,93549.97
2023-04-04T06:10:36.597Z,93552.84
2023-04-04T06:13:19.824Z,93555.78
2023-04-04T06:16:03.220Z,93547.50
2023-04-04T06:18:50.249Z,93554.25
2023-04-04T06:21:35.181Z,93547.28
2023-04-04T06:24:18.472Z,93550.69
2023-04-04T06:27:02.073Z,93558.97
2023-04-04T06:29:45.221Z,93564.69
2023-04-04T06:32:28.509Z,93560.03
2023-04-04T06:35:12.182Z,93556.91
2023-04-04T06:37:57.937Z,93571.75
2023-04-04T06:40:41.537Z,93579.28
2023-04-04T06:43:25.366Z,93584.75
2023-04-04T06:46:08.733Z,93580.31
2023-04-04T06:48:52.037Z,93594.81
2023-04-04T06:51:35.599Z,93591.41
2023-04-04T06:54:20.454Z,93593.22
2023-04-04T06:57:03.896Z,93605.63
2023-04-04T06:59:47.283Z,93611.72
2023-04-04T07:02:30.791Z,93616.66
2023-04-04T07:05:18.075Z,93632.09
2023-04-04T07:08:04.014Z,93649.41
2023-04-04T07:10:48.925Z,93660.66
2023-04-04T07:13:32.392Z,93664.94
2023-04-04T07:16:16.063Z,93679.50
2023-04-04T07:18:59.558Z,93680.31
2023-04-04T07:21:43.069Z,93680.94
2023-04-04T07:24:26.402Z,93685.28
2023-04-04T07:27:11.395Z,93692.72
2023-04-04T07:29:54.731Z,93694.50
2023-04-04T07:32:39.559Z,93697.81
2023-04-04T07:35:22.913Z,93691.66
2023-04-04T07:38:06.209Z,93712.66
2023-04-04T07:40:51.124Z,93719.31
2023-04-04T07:43:35.940Z,93715.13
2023-04-04T07:46:20.488Z,93717.75
2023-04-04T07:49:03.991Z,93721.50
2023-04-04T07:51:47.454Z,93710.22
2023-04-04T07:54:30.898Z,93707.97
2023-04-04T07:57:14.652Z,93721.50
2023-04-04T07:59:59.815Z,93723.19
2023-04-04T08:02:45.842Z,93735.75
2023-04-04T08:05:29.680Z,93741.28
2023-04-04T08:08:13.906Z,93747.34
2023-04-04T08:10:57.271Z,93758.91
2023-04-04T08:13:41.000Z,93750.28
2023-04-04T08:16:26.013Z,93765.34
2023-04-04T08:19:10.046Z,93774.50
2023-04-04T08:21:53.880Z,93777.91
2023-04-04T08:24:37.467Z,93775.31
2023-04-04T08:27:20.806Z,93787.72
2023-04-04T08:30:05.386Z,93790.81
2023-04-04T08:32:50.351Z,93788.44
2023-04-04T08:35:34.431Z,93789.41
2023-04-04T08:38:17.848Z,93783.34
2023-04-04T08:41:01.325Z,93779.53
2023-04-04T08:43:46.633Z,93784.09
2023-04-04T08:46:31.687Z,93786.44
2023-04-04T08:49:18.493Z,93798.94
2023-04-04T08:52:04.865Z,93805.75
2023-04-04T08:54:49.569Z,93813.44
2023-04-04T08:57:33.948Z,93812.06
2023-04-04T09:00:21.628Z,93817.44
2023-04-04T09:05:56.979Z,93840.06
2023-04-04T09:08:41.871Z,93833.31
2023-04-04T09:11:26.339Z,93841.34
2023-04-04T09:14:09.808Z,93839.22
2023-04-04T09:16:53.694Z,93843.66
2023-04-04T09:19:36.994Z,93840.00
2023-04-04T09:22:21.718Z,93837.00
2023-04-04T09:25:10.044Z,93832.69
2023-04-04T09:27:54.621Z,93835.19
2023-04-04T09:30:38.874Z,93842.16
2023-04-04T09:33:24.265Z,93825.88
2023-04-04T09:36:10.541Z,93820.66
2023-04-04T09:38:55.745Z,93820.41
2023-04-04T09:41:41.358Z,93829.53
2023-04-04T09:44:26.071Z,93826.75
2023-04-04T09:47:31.225Z,93823.09
2023-04-04T09:50:23.568Z,93823.34
2023-04-04T09:53:07.711Z,93830.31
2023-04-04T09:55:53.939Z,93840.34
2023-04-04T09:58:46.315Z,93843.28
2023-04-04T10:01:33.739Z,93859.22
2023-04-04T10:04:17.129Z,93856.38
2023-04-04T10:07:01.826Z,93867.06
2023-04-04T10:09:45.105Z,93862.22
2023-04-04T10:12:33.405Z,93867.19
2023-04-04T10:15:18.308Z,93868.09
2023-04-04T10:18:02.362Z,93877.09
2023-04-04T10:20:47.542Z,93875.22
2023-04-04T10:23:30.881Z,93883.53
2023-04-04T10:26:14.751Z,93874.75
2023-04-04T10:29:00.672Z,93869.91
2023-04-04T10:31:48.045Z,93882.16
2023-04-04T10:34:46.512Z,93876.09
2023-04-04T10:37:36.292Z,93881.69
2023-04-04T10:40:21.520Z,93881.47
2023-04-04T10:43:06.853Z,93888.56
2023-04-04T10:45:52.347Z,93890.38
2023-04-04T10:48:36.614Z,93895.41
2023-04-04T10:51:20.365Z,93905.00
2023-04-04T10:54:04.768Z,93904.63
2023-04-04T10:56:49.683Z,93893.75
2023-04-04T10:59:33.259Z,93904.09
2023-04-04T11:02:19.153Z,93906.16
2023-04-04T11:05:12.930Z,93904.38
2023-04-04T11:08:08.065Z,93911.09
2023-04-04T11:10:54.138Z,93922.53
2023-04-04T11:13:40.586Z,93920.94
2023-04-04T11:16:26.161Z,93916.94
2023-04-04T11:19:15.161Z,93918.00
2023-04-04T11:22:00.318Z,93919.38
2023-04-04T11:24:44.893Z,93917.94
2023-04-04T11:27:28.789Z,93919.47
2023-04-04T11:30:15.368Z,93928.13
2023-04-04T11:33:07.227Z,93930.31
2023-04-04T11:35:53.014Z,93932.81
2023-04-04T11:38:36.887Z,93942.00
2023-04-04T11:41:21.591Z,93932.78
2023-04-04T11:44:10.289Z,93930.41
2023-04-04T11:46:57.834Z,93937.84
2023-04-04T11:49:43.846Z,93933.09
2023-04-04T11:52:35.460Z,93938.63
2023-04-04T11:55:20.815Z,93942.44
2023-04-04T11:58:12.749Z,93937.75
2023-04-04T12:00:56.957Z,93938.63
2023-04-04T12:03:40.631Z,93936.19
2023-04-04T12:06:24.038Z,93936.28
2023-04-04T12:09:12.561Z,93937.63
2023-04-04T12:11:58.337Z,93934.53
2023-04-04T12:14:41.806Z,93949.28
2023-04-04T12:17:25.492Z,93939.03
2023-04-04T12:20:11.877Z,93946.94
2023-04-04T12:22:55.192Z,93953.72
2023-04-04T12:25:44.343Z,93942.81
2023-04-04T12:28:28.402Z,93948.03
2023-04-04T12:31:12.931Z,93949.88
2023-04-04T12:33:56.464Z,93954.91
2023-04-04T12:36:40.324Z,93954.91
2023-04-04T12:39:27.825Z,93955.84
2023-04-04T12:42:13.378Z,93962.25
2023-04-04T12:44:59.577Z,93951.13
2023-04-04T12:47:53.776Z,93957.88
2023-04-04T12:50:51.672Z,93955.22
2023-04-04T12:53:35.452Z,93962.94
2023-04-04T12:56:18.923Z,93973.03
2023-04-04T12:59:04.965Z,93981.69
2023-04-04T13:01:49.456Z,93983.53
2023-04-04T13:04:33.527Z,93983.09
2023-04-04T13:07:27.827Z,93997.50
2023-04-04T13:10:14.131Z,93983.41
2023-04-04T13:13:00.236Z,93997.88
2023-04-04T13:15:52.146Z,94004.19
2023-04-04T13:18:38.646Z,93991.66
2023-04-04T13:21:22.168Z,93998.38
2023-04-04T13:24:05.869Z,93998.38
2023-04-04T13:26:49.110Z,94001.69
2023-04-04T13:29:32.704Z,94004.53
2023-04-04T13:32:17.422Z,94013.22
2023-04-04T13:35:00.910Z,94015.09
2023-04-04T13:37:44.253Z,94018.28
2023-04-04T13:40:27.894Z,94016.38
2023-04-04T13:43:13.134Z,94021.34
2023-04-04T13:45:56.893Z,94027.25
2023-04-04T13:48:42.046Z,94018.06
2023-04-04T13:51:26.953Z,94038.22
2023-04-04T13:54:10.706Z,94039.78
2023-04-04T13:56:55.443Z,94039.41
2023-04-04T13:59:39.058Z,94040.75
2023-04-04T14:02:22.650Z,94046.25
2023-04-04T14:05:08.942Z,94046.69
2023-04-04T14:07:52.470Z,94047.91
2023-04-04T14:10:35.976Z,94054.81
2023-04-04T14:13:20.004Z,94041.22
2023-04-04T14:16:03.532Z,94058.59
2023-04-04T14:18:49.204Z,94059.38
2023-04-04T14:21:34.124Z,94061.78
2023-04-04T14:24:17.422Z,94073.22
2023-04-04T14:27:01.609Z,94065.34
2023-04-04T14:29:48.017Z,94083.09
2023-04-04T14:32:32.279Z,94084.66
2023-04-04T14:35:17.378Z,94079.13
2023-04-04T14:38:03.695Z,94087.63
2023-04-04T14:40:47.955Z,94077.94
2023-04-04T14:43:32.621Z,94082.88
2023-04-04T14:46:16.330Z,94084.69
2023-04-04T14:48:59.695Z,94094.53
2023-04-04T14:51:43.110Z,94092.53
2023-04-04T14:54:27.963Z,94103.56
2023-04-04T14:57:12.073Z,94100.00
2023-04-04T14:59:55.431Z,94103.16
2023-04-04T15:02:39.241Z,94111.00
2023-04-04T15:05:23.038Z,94110.38
2023-04-04T15:08:07.702Z,94116.16
2023-04-04T15:10:56.166Z,94122.03
2023-04-04T15:13:39.451Z,94114.50
2023-04-04T15:16:22.828Z,94124.16
2023-04-04T15:19:06.146Z,94120.66
2023-04-04T15:21:49.703Z,94122.44
2023-04-04T15:24:33.143Z,94126.75
2023-04-04T15:27:18.203Z,94133.06
2023-04-04T15:30:01.625Z,94134.38
2023-04-04T15:32:45.208Z,94135.63
2023-04-04T15:35:28.990Z,94137.00
2023-04-04T15:38:12.403Z,94141.59
2023-04-04T15:40:58.060Z,94146.50
2023-04-04T15:43:42.959Z,94145.13
2023-04-04T15:46:28.573Z,94140.59
2023-04-04T15:49:12.177Z,94151.19
2023-04-04T15:51:55.542Z,94160.63
2023-04-04T15:54:38.941Z,94155.50
2023-04-04T15:57:22.422Z,94162.19
2023-04-04T16:00:08.689Z,94165.03
2023-04-04T16:02:52.822Z,94166.59
2023-04-04T16:05:36.330Z,94179.22
2023-04-04T16:08:19.906Z,94174.09
2023-04-04T16:11:03.505Z,94177.41
2023-04-04T16:13:46.932Z,94182.09
2023-04-04T16:16:32.172Z,94186.56
2023-04-04T16:19:17.150Z,94188.97
2023-04-04T16:22:00.664Z,94188.66
2023-04-04T16:24:44.196Z,94183.22
2023-04-04T16:27:27.675Z,94186.56
2023-04-04T16:30:12.250Z,94197.16
2023-04-04T16:32:57.248Z,94192.44
2023-04-04T16:35:41.163Z,94192.75
2023-04-04T16:38:24.774Z,94198.69
2023-04-04T16:41:08.211Z,94198.81
2023-04-04T16:43:53.091Z,94211.81
2023-04-04T16:46:36.894Z,94204.91
2023-04-04T16:49:21.962Z,94207.69
2023-04-04T16:52:05.550Z,94211.16
2023-04-04T16:54:48.932Z,94216.84
2023-04-04T16:57:32.396Z,94219.25
2023-04-04T17:00:17.503Z,94221.03
2023-04-04T17:03:00.992Z,94228.47
2023-04-04T17:05:46.365Z,94228.47
2023-04-04T17:08:30.088Z,94228.50
2023-04-04T17:11:14.460Z,94226.03
2023-04-04T17:13:58.266Z,94245.66
2023-04-04T17:16:43.339Z,94248.13
2023-04-04T17:19:30.185Z,94257.75
2023-04-04T17:22:16.260Z,94245.19
2023-04-04T17:25:02.656Z,94264.44
2023-04-04T17:27:49.331Z,94260.53
2023-04-04T17:30:32.913Z,94278.94
2023-04-04T17:33:16.581Z,94278.16
2023-04-04T17:36:04.773Z,94286.41
2023-04-04T17:38:49.803Z,94287.16
2023-04-04T17:41:33.300Z,94285.16
2023-04-04T17:44:16.777Z,94301.59
2023-04-04T17:47:03.022Z,94302.81
2023-04-04T17:49:47.216Z,94309.94
2023-04-04T17:52:30.839Z,94306.81
2023-04-04T17:55:18.094Z,94310.09
2023-04-04T17:58:02.767Z,94319.28
2023-04-04T18:00:50.492Z,94314.69
2023-04-04T18:03:34.062Z,94322.09
2023-04-04T18:06:17.998Z,94329.31
2023-04-04T18:09:01.453Z,94325.81
2023-04-04T18:11:46.630Z,94337.69
2023-04-04T18:14:34.229Z,94334.44
2023-04-04T18:17:21.083Z,94338.84
2023-04-04T18:20:05.765Z,94335.94
2023-04-04T18:22:53.061Z,94350.03
2023-04-04T18:25:36.700Z,94349.00
2023-04-04T18:28:21.667Z,94354.53
2023-04-04T18:31:05.159Z,94347.13
2023-04-04T18:33:50.063Z,94358.84
2023-04-04T18:36:38.534Z,94358.03
2023-04-04T18:39:22.650Z,94350.75
2023-04-04T18:42:20.077Z,94364.91
2023-04-04T18:45:16.191Z,94362.97
2023-04-04T18:48:01.068Z,94361.41
2023-04-04T18:50:50.817Z,94371.91
2023-04-04T18:53:45.142Z,94370.03
2023-04-04T18:56:28.949Z,94369.06
2023-04-04T18:59:22.480Z,94379.94
2023-04-04T19:02:20.782Z,94369.34
2023-04-04T19:05:05.713Z,94373.28
2023-04-04T19:07:50.340Z,94378.72
2023-04-04T19:10:34.023Z,94384.59
2023-04-04T19:13:18.011Z,94399.59
2023-04-04T19:16:01.881Z,94398.91
2023-04-04T19:18:48.597Z,94395.63
2023-04-04T19:21:32.357Z,94399.53
2023-04-04T19:24:16.706Z,94399.25
2023-04-04T19:27:00.236Z,94393.06
2023-04-04T19:29:43.945Z,94394.59
2023-04-04T19:32:29.753Z,94391.59
2023-04-04T19:35:24.288Z,94396.19
2023-04-04T19:38:09.704Z,94403.13
2023-04-04T19:40:55.783Z,94403.22
2023-04-04T19:43:39.522Z,94417.50
2023-04-04T19:46:27.147Z,94407.03
2023-04-04T19:49:13.295Z,94403.91
2023-04-04T19:52:00.773Z,94410.56
2023-04-04T19:54:44.308Z,94414.53
2023-04-04T19:57:28.540Z,94405.78
2023-04-04T20:00:14.096Z,94404.56
2023-04-04T20:03:01.882Z,94404.63
2023-04-04T20:06:01.322Z,94400.25
2023-04-04T20:08:49.227Z,94391.06
2023-04-04T20:11:34.310Z,94389.22
2023-04-04T20:14:22.458Z,94401.72
2023-04-04T20:17:05.941Z,94385.94
2023-04-04T20:19:49.297Z,94383.09
2023-04-04T20:22:32.922Z,94384.09
2023-04-04T20:25:41.690Z,94395.47
2023-04-04T20:28:27.625Z,94401.88
2023-04-04T20:31:12.379Z,94397.13
2023-04-04T20:33:56.774Z,94396.88
2023-04-04T20:36:43.343Z,94384.69
2023-04-04T20:39:39.229Z,94396.59
2023-04-04T20:42:44.801Z,94404.34
2023-04-04T20:45:47.151Z,94401.53
2023-04-04T20:48:39.708Z,94398.91
2023-04-04T20:51:31.381Z,94394.03
2023-04-04T20:54:15.142Z,94392.91
2023-04-04T20:56:58.594Z,94403.84
2023-04-04T20:59:44.929Z,94403.22
2023-04-04T21:02:29.091Z,94410.00
2023-04-04T21:05:27.785Z,94406.56
2023-04-04T21:08:38.226Z,94416.81
2023-04-04T21:11:27.405Z,94413.00
2023-04-04T21:14:22.594Z,94421.47
2023-04-04T21:17:09.697Z,94408.25
2023-04-04T21:19:53.258Z,94419.97
2023-04-04T21:22:36.867Z,94409.22
2023-04-04T21:25:44.780Z,94416.88
2023-04-04T21:28:31.593Z,94411.31
2023-04-04T21:31:16.655Z,94424.00
2023-04-04T21:34:07.822Z,94425.09
2023-04-04T21:36:55.349Z,94426.94
2023-04-04T21:39:38.606Z,94412.19
2023-04-04T21:42:22.190Z,94432.41
2023-04-04T21:45:06.229Z,94431.88
2023-04-04T21:47:49.744Z,94414.97
2023-04-04T21:50:34.946Z,94425.34
2023-04-04T21:53:18.893Z,94424.56
2023-04-04T21:56:03.870Z,94428.88
2023-04-04T21:58:47.594Z,94439.88
2023-04-04T22:01:31.848Z,94437.66
2023-04-04T22:04:15.433Z,94433.19
2023-04-04T22:07:00.248Z,94435.66
2023-04-04T22:09:43.922Z,94438.47
2023-04-04T22:12:27.425Z,94434.97
2023-04-04T22:15:12.614Z,94435.84
2023-04-04T22:18:03.867Z,94433.81
2023-04-04T22:20:48.662Z,94424.38
2023-04-04T22:23:37.121Z,94442.38
2023-04-04T22:26:29.233Z,94435.59
2023-04-04T22:29:12.738Z,94421.28
2023-04-04T22:31:56.632Z,94435.03
2023-04-04T22:34:40.205Z,94431.44
2023-04-04T22:37:23.914Z,94437.25
2023-04-04T22:40:11.867Z,94440.69
2023-04-04T22:42:55.446Z,94431.09
2023-04-04T22:45:39.075Z,94425.09
2023-04-04T22:48:24.277Z,94435.66
2023-04-04T22:51:08.583Z,94433.66
2023-04-04T22:53:52.074Z,94436.88
2023-04-04T22:56:37.057Z,94444.75
2023-04-04T22:59:20.592Z,94446.31
2023-04-04T23:02:04.395Z,94448.19
2023-04-04T23:04:48.497Z,94449.56
2023-04-04T23:07:32.530Z,94426.91
2023-04-04T23:10:17.091Z,94448.63
2023-04-04T23:13:02.111Z,94445.19
2023-04-04T23:15:45.959Z,94442.00
2023-04-04T23:18:29.604Z,94450.31
2023-04-04T23:21:13.220Z,94443.97
2023-04-04T23:23:57.806Z,94451.72
2023-04-04T23:26:41.525Z,94444.38
2023-04-04T23:29:26.425Z,94443.31
2023-04-04T23:32:10.466Z,94445.25
2023-04-04T23:34:53.808Z,94446.13
2023-04-04T23:37:37.415Z,94449.78
2023-04-04T23:40:21.192Z,94447.72
2023-04-04T23:43:04.707Z,94443.66
2023-04-04T23:45:49.611Z,94446.03
2023-04-04T23:48:33.150Z,94438.53
2023-04-04T23:51:17.750Z,94447.28
2023-04-04T23:54:01.289Z,94440.94
2023-04-04T23:56:44.773Z,94439.63
2023-04-04T23:59:28.417Z,94429.09
